Sarah Desgagnes — XJAB — position and weather

sailwx.info

Track history (hours):
 
Tides and Currents Weather Stations Pressure Air Temp Water Temp Dewpoint Dewpoint Depression Visibility Wind Speed Wind Dir Waves Ship Positions

Sarah Desgagnes

Last reported at 2016-Jul-25 04:00 UTC. Time now 2016-Jul-25 06:13 UTC.
Position N 61°36' W 071°54'.

Length 147 m; draft 6.8 m.

Type: Ship. MMSI: 316012308.

Wind from 100 at 2 knots

Barometer 1017.6 mb
Air temperature 8.6 ° C
Dewpoint 8.6 ° C

Date/timePositionNaut miles runAvg speedWind from/ knotsBaromVisibWave heightAir tempDewpointWater temp
2016-Jul-25 04:00N 61°36' W 071°54'0 0.0 100 / 21017.6 8.6 8.6
2016-Jul-25 03:00N 61°36' W 071°54'0 0.0 180 / 11017.6 9.8 9.8
2016-Jul-25 02:00N 61°36' W 071°54'0 0.0 140 / 11017.7 8.3 8.3
2016-Jul-24 23:00N 61°36' W 071°54'0 0.0 350 / 21017.6 6.0 6.1
2016-Jul-24 22:00N 61°36' W 071°54'0 0.0 010 / 31017.3 7.4 7.5
2016-Jul-24 21:00N 61°36' W 071°54'0 0.0 020 / 61016.9 7.2 7.3
2016-Jul-24 18:00N 61°36' W 071°54'0 0.0 020 / 131015.2 6.3 6.4
2016-Jul-24 17:00N 61°36' W 071°54'0 0.0 140 / 51015.0 12.812.7
2016-Jul-24 16:00N 61°36' W 071°54'0 0.0 010 / 41015.1 7.5 7.6
2016-Jul-24 13:00N 61°36' W 071°54'0 0.0 330 / 21014.5 7.0 7.1
2016-Jul-24 12:00N 61°36' W 071°54'0 0.0 300 / 11014.2 7.0 7.1
2016-Jul-24 11:00N 61°36' W 071°54'0 0.0 080 / 11013.9 8.7 8.8
2016-Jul-24 10:00N 61°36' W 071°54'0 0.0 110 / 11013.6 9.0 9.1
2016-Jul-24 08:00N 61°36' W 071°54'0 0.0 130 / 41013.2 8.7 8.8
2016-Jul-24 05:00N 61°36' W 071°54'0 0.0 130 / 71011.9 7.1 7.2
2016-Jul-24 04:00N 61°36' W 071°54'0 0.0 130 / 71011.4 7.2 7.3
2016-Jul-24 02:00N 61°36' W 071°54'0 0.0 130 / 21010.8 9.2 9.3
2016-Jul-24 00:00N 61°36' W 071°54'0 0.0 120 / 41010.3 9.9 9.9
2016-Jul-23 23:00N 61°36' W 071°54'0 0.0 230 / 11010.4 7.8 7.8
2016-Jul-23 22:00N 61°36' W 071°54'0 0.0 050 / 11010.3 9.0 9.0
2016-Jul-23 20:00N 61°36' W 071°54'0 0.0 130 / 91009.3 9.3 9.3
2016-Jul-23 19:00N 61°36' W 071°54'0 0.0 130 / 71008.6 10.310.3
2016-Jul-23 18:00N 61°36' W 071°54'0 0.0 120 / 71008.1 10.911.0
2016-Jul-23 16:00N 61°36' W 071°54'0 0.0 130 / 71007.1 10.110.2
2016-Jul-23 15:00N 61°36' W 071°54'0 0.0 1006.9 8.2 8.3
2016-Jul-23 09:00N 61°36' W 071°54'0 0.0 100 / 21006.2 7.1 7.2
2016-Jul-23 08:00N 61°36' W 071°54'0 0.0 1005.8 6.5 6.6
2016-Jul-23 07:00N 61°36' W 071°54'0 0.0 040 / 11005.1 6.8 6.9
2016-Jul-23 06:00N 61°36' W 071°54'0 0.0 280 / 11004.7 6.6 6.7
2016-Jul-23 05:00N 61°36' W 071°54'0 0.0 100 / 11004.5 6.7 6.8
2016-Jul-23 04:00N 61°36' W 071°54'0 0.0 240 / 11004.2 5.5 5.6
2016-Jul-23 03:00N 61°36' W 071°54'0 0.0 1004.0 5.4 5.5
2016-Jul-23 02:00N 61°36' W 071°54'0 0.0 210 / 21003.7 4.9 5.0
2016-Jul-23 00:00N 61°36' W 071°54'0 0.0 1003.5 5.9 5.9
2016-Jul-22 22:00N 61°36' W 071°54'0 0.0 310 / 21003.3 5.5 5.6
2016-Jul-22 21:00N 61°36' W 071°54'0 0.0 030 / 121002.7 5.5 5.6
2016-Jul-22 19:00N 61°36' W 071°54'0 0.0 030 / 231000.8 3.7 3.8
2016-Jul-22 16:00N 61°36' W 071°54'0 0.0 020 / 21998.8 4.1 4.2
2016-Jul-22 13:00N 61°36' W 071°54'0 0.0 030 / 20998.5 3.5 3.6
2016-Jul-22 11:00N 61°36' W 071°54'0 0.0 020 / 18998.9 3.7 3.8
2016-Jul-22 10:00N 61°36' W 071°54'0 0.0 030 / 20999.0 3.3 3.4
2016-Jul-22 06:00N 61°36' W 071°54'0 0.0 020 / 21998.6 3.2 3.3
2016-Jul-22 05:00N 61°36' W 071°54'0 0.0 020 / 17998.5 3.8 3.9
2016-Jul-22 04:00N 61°36' W 071°54'0 0.0 010 / 12998.3 3.3 3.4
2016-Jul-22 03:00N 61°36' W 071°54'0 0.0 030 / 8998.2 3.2 3.3
2016-Jul-22 02:00N 61°36' W 071°54'0 0.0 020 / 2998.2 3.9 4.0
2016-Jul-21 22:00N 61°36' W 071°54'0 0.0 280 / 1999.1 5.8 5.9 1.8
2016-Jul-21 21:00N 61°36' W 071°54'0 0.0 230 / 2999.6 4.6 4.7 1.8
2016-Jul-21 20:00N 61°36' W 071°54'17 5.5 999.7 4.3 4.4 2.1
2016-Jul-21 17:00N 61°48' W 071°30'5212.9 120 / 12999.8 3.6 3.7 2.6
2016-Jul-21 13:00N 61°12' W 070°12'19 6.3 140 / 171002.5 4.8 4.8 3.3
2016-Jul-21 10:00N 61°00' W 069°42'0 0.0 300 / 41004.8 5.7 5.7
2016-Jul-21 09:00N 61°00' W 069°42'0 0.0 140 / 151004.6 6.1 6.0
2016-Jul-21 07:00N 61°00' W 069°42'0 0.0 140 / 141005.7 6.3 6.3
2016-Jul-21 06:00N 61°00' W 069°42'0 0.0 170 / 111006.3 5.8 5.7
2016-Jul-21 05:00N 61°00' W 069°42'0 0.0 180 / 131006.2 6.6 5.4
2016-Jul-21 04:00N 61°00' W 069°42'0 0.0 180 / 91006.4 7.0 5.5
2016-Jul-21 03:00N 61°00' W 069°42'0 0.0 170 / 81006.8 7.1 5.5
2016-Jul-21 02:00N 61°00' W 069°42'0 0.0 170 / 121006.9 7.6 5.6
2016-Jul-21 01:00N 61°00' W 069°42'0 0.0 170 / 121007.2 7.4 5.6
2016-Jul-21 00:00N 61°00' W 069°42'0 0.0 170 / 111007.3 7.7 5.9
2016-Jul-20 23:00N 61°00' W 069°42'0 0.0 160 / 181007.1 9.0 6.2
2016-Jul-20 19:00N 61°00' W 069°42'0 0.0 150 / 151007.9 12.3 6.8
2016-Jul-20 18:00N 61°00' W 069°42'0 0.0 140 / 141008.0 13.0 7.2
2016-Jul-20 17:00N 61°00' W 069°42'0 0.0 150 / 141008.1 12.0 7.1
2016-Jul-20 16:00N 61°00' W 069°42'0 0.0 160 / 141008.3 10.9 6.9
2016-Jul-20 15:00N 61°00' W 069°42'0 0.0 150 / 131008.2 10.5 6.9
2016-Jul-20 13:00N 61°00' W 069°42'0 0.0 150 / 111008.7 8.8 6.7
2016-Jul-20 09:00N 61°00' W 069°42'0 0.0 160 / 101009.9 6.0 6.0
2016-Jul-20 05:00N 61°00' W 069°42'0 0.0 170 / 61009.8 8.0 6.7
2016-Jul-20 03:00N 61°00' W 069°42'0 0.0 160 / 51009.7 9.4 7.0
2016-Jul-20 02:00N 61°00' W 069°42'0 0.0 050 / 21009.7 7.6 5.1
2016-Jul-20 01:00N 61°00' W 069°42'0 0.0 1009.5 8.7 5.2
2016-Jul-20 00:00N 61°00' W 069°42'0 0.0 300 / 21009.7 7.3 5.3
2016-Jul-19 22:00N 61°00' W 069°42'0 0.0 020 / 51009.9 7.2 3.8
2016-Jul-19 21:00N 61°00' W 069°42'0 0.0 1010.3 9.2 4.1
2016-Jul-19 19:00N 61°00' W 069°42'0 0.0 360 / 11010.2 8.6 4.5
2016-Jul-19 17:00N 61°00' W 069°42'0 0.0 1009.7 7.4 5.1
2016-Jul-19 16:00N 61°00' W 069°42'0 0.0 060 / 11009.5 6.8 4.9
2016-Jul-19 14:00N 61°00' W 069°42'0 0.0 340 / 61009.2 6.1 5.1
2016-Jul-19 13:00N 61°00' W 069°42'0 0.0 330 / 71008.7 5.0 5.0
2016-Jul-19 11:00N 61°00' W 069°42'0 0.0 330 / 121007.9 3.9 3.9
2016-Jul-19 10:00N 61°00' W 069°42'0 0.0 330 / 101007.7 4.0 4.0
2016-Jul-19 09:00N 61°00' W 069°42'0 0.0 320 / 131007.2 3.3 3.3
2016-Jul-19 08:00N 61°00' W 069°42'0 0.0 330 / 141007.0 3.5 3.5
2016-Jul-19 06:00N 61°00' W 069°42'0 0.0 310 / 161006.2 3.4 3.4
2016-Jul-19 03:00N 61°00' W 069°42'0 0.0 160 / 71004.3 9.5 6.9
2016-Jul-19 02:00N 61°00' W 069°42'0 0.0 160 / 81003.7 9.7 7.0
2016-Jul-19 01:00N 61°00' W 069°42'0 0.0 140 / 81003.0 10.8 6.4
2016-Jul-19 00:00N 61°00' W 069°42'0 0.0 020 / 31002.7 11.0 5.1
2016-Jul-18 21:00N 61°00' W 069°42'0 0.0 330 / 31002.0 10.5 6.5
2016-Jul-18 20:00N 61°00' W 069°42'0 0.0 260 / 11001.4 10.7 6.9
2016-Jul-18 19:00N 61°00' W 069°42'0 0.0 320 / 21001.1 9.5 6.8
2016-Jul-18 18:00N 61°00' W 069°42'0 0.0 320 / 21000.7 10.2 7.5
2016-Jul-18 17:00N 61°00' W 069°42'0 0.0 240 / 1999.7 8.6 7.9
2016-Jul-18 16:00N 61°00' W 069°42'0 0.0 280 / 5998.9 9.1 7.8
2016-Jul-18 11:00N 61°00' W 069°42'0 0.0 170 / 16995.6 10.410.4
2016-Jul-18 09:00N 61°00' W 069°42'0 0.0 170 / 17996.7 9.5 9.5
2016-Jul-18 08:00N 61°00' W 069°42'0 0.0 160 / 21997.2 9.4 9.4
2016-Jul-18 07:00N 61°00' W 069°42'0 0.0 170 / 22998.0 9.8 9.8
2016-Jul-18 04:00N 61°00' W 069°42'0 0.0 190 / 23999.6 14.713.4
2016-Jul-18 03:00N 61°00' W 069°42'0 0.0 160 / 181000.2 14.013.8
2016-Jul-17 23:00N 61°00' W 069°42'0 0.0 220 / 10999.5 13.013.0
2016-Jul-17 22:00N 61°00' W 069°42'0 0.0 230 / 10999.6 13.013.0
2016-Jul-17 19:00N 61°00' W 069°42'0 0.0 190 / 25997.3 12.712.7
2016-Jul-17 18:00N 61°00' W 069°42'0 0.0 160 / 16998.8 10.410.5
2016-Jul-17 15:00N 61°00' W 069°42'0 0.0 170 / 141001.2 7.9 7.9
2016-Jul-17 14:00N 61°00' W 069°42'0 0.0 180 / 101001.1 8.7 8.6
2016-Jul-17 13:00N 61°00' W 069°42'0 0.0 200 / 91001.1 8.4 8.0
2016-Jul-17 12:00N 61°00' W 069°42'0 0.0 250 / 71001.2 7.3 6.6
2016-Jul-17 11:00N 61°00' W 069°42'0 0.0 250 / 91000.6 8.0 6.5 2.1
2016-Jul-17 10:00N 61°00' W 069°42'0 0.0 230 / 151000.1 7.0 6.4 2.4
2016-Jul-17 09:00N 61°00' W 069°42'11 5.3 220 / 9999.7 7.6 7.1 2.7
2016-Jul-17 07:00N 61°06' W 070°00'13 6.7 270 / 10998.3 7.7 7.2 1.9
2016-Jul-17 05:00N 61°18' W 070°12'2110.7 230 / 9995.8 5.6 5.4 3.2
2016-Jul-17 03:00N 61°36' W 070°36'1313.3 230 / 17993.0 5.5 5.4 2.9
2016-Jul-17 02:00N 61°48' W 070°48'7 6.6 250 / 19991.2 5.6 5.6 3.1
2016-Jul-17 01:00N 61°54' W 070°54'1616.5 220 / 14990.1 7.2 7.4 3.3
2016-Jul-17 00:00N 62°06' W 071°18'2311.6 220 / 9989.2 5.2 5.4 2.8
2016-Jul-16 22:00N 62°12' W 072°06'1312.7 240 / 10987.0 7.4 7.5 3.1
2016-Jul-16 21:00N 62°18' W 072°30'3015.1 240 / 9986.2 6.8 6.9 3.4
2016-Jul-16 19:00N 62°30' W 073°30'2813.9 180 / 9984.8 2.9 3.0 2.8
2016-Jul-16 17:00N 62°30' W 074°30'2612.8 100 / 13984.0 2.4 2.5 4.1
2016-Jul-16 15:00N 62°36' W 075°24'1413.8 110 / 12983.5 3.5 3.6 3.5
2016-Jul-16 14:00N 62°36' W 075°54'1111.0 100 / 13983.4 3.5 3.7 5.0
2016-Jul-16 13:00N 62°36' W 076°18'1413.8 110 / 12983.2 3.7 3.8 4.4
2016-Jul-16 12:00N 62°36' W 076°48'1111.0 120 / 15983.0 3.5 3.6 3.7
2016-Jul-16 11:00N 62°36' W 077°12'1515.0 100 / 14983.1 3.6 3.7 4.7
2016-Jul-16 10:00N 62°42' W 077°42'1413.8 100 / 14983.3 3.7 3.8 5.2
2016-Jul-16 09:00N 62°42' W 078°12'6 5.5 100 / 11984.1 2.8 2.9 3.7
2016-Jul-16 08:00N 62°42' W 078°24'1212.3 120 / 14984.4 2.9 3.0 4.8
2016-Jul-16 07:00N 62°30' W 078°30'1212.0 170 / 12985.1 4.3 4.4 4.9
2016-Jul-16 06:00N 62°18' W 078°30'1212.0 150 / 15985.6 3.9 4.0 3.9
2016-Jul-16 05:00N 62°06' W 078°30'1212.0 150 / 11986.5 3.0 3.1 3.5
2016-Jul-16 04:00N 61°54' W 078°30'2412.1 150 / 9987.8 3.3 3.4 4.2
2016-Jul-16 02:00N 61°30' W 078°36'1212.0 190 / 11989.7 5.9 6.0 6.3
2016-Jul-16 01:00N 61°18' W 078°36'2512.3 210 / 12990.8 5.8 5.9 6.0
2016-Jul-15 23:00N 60°54' W 078°48'19 6.2 210 / 12993.3 5.6 5.7 5.2
2016-Jul-15 20:00N 60°48' W 078°12'0 0.0 270 / 9994.6 5.0 5.1
2016-Jul-15 19:00N 60°48' W 078°12'0 0.0 310 / 17994.8 4.5 4.6
2016-Jul-15 17:00N 60°48' W 078°12'0 0.0 300 / 13995.0 5.1 5.2
2016-Jul-15 16:00N 60°48' W 078°12'0 0.0 310 / 12995.0 4.9 4.9
2016-Jul-15 14:00N 60°48' W 078°12'0 0.0 340 / 22994.7 3.9 3.9
2016-Jul-15 13:00N 60°48' W 078°12'0 0.0 340 / 21994.2 3.7 3.8
2016-Jul-15 12:00N 60°48' W 078°12'0 0.0 330 / 20994.1 3.6 3.7
2016-Jul-15 11:00N 60°48' W 078°12'0 0.0 340 / 24993.7 3.5 3.6
2016-Jul-15 10:00N 60°48' W 078°12'0 0.0 340 / 24993.4 3.6 3.6
2016-Jul-15 08:00N 60°48' W 078°12'0 0.0 350 / 23993.3 3.1 3.1
2016-Jul-15 06:00N 60°48' W 078°12'0 0.0 350 / 21993.3 3.1 3.1
2016-Jul-15 05:00N 60°48' W 078°12'   350 / 18993.2 3.3 3.4
Track history (hours):
 
Tides and Currents Weather Stations Pressure Air Temp Water Temp Dewpoint Dewpoint Depression Visibility Wind Speed Wind Dir Waves Ship Positions

Sarah Desgagnes

Last reported at 2016-Jul-25 04:00 UTC. Time now 2016-Jul-25 06:13 UTC.
Position N 61°36' W 071°54'.

Length 147 m; draft 6.8 m.

Type: Ship. MMSI: 316012308.

Wind from 100 at 2 knots

Barometer 1017.6 mb
Air temperature 8.6 ° C
Dewpoint 8.6 ° C

Date/timePositionNaut miles runAvg speedWind from/ knotsBaromVisibWave heightAir tempDewpointWater temp
2016-Jul-25 04:00N 61°36' W 071°54'0 0.0 100 / 21017.6 8.6 8.6
2016-Jul-25 03:00N 61°36' W 071°54'0 0.0 180 / 11017.6 9.8 9.8
2016-Jul-25 02:00N 61°36' W 071°54'0 0.0 140 / 11017.7 8.3 8.3
2016-Jul-24 23:00N 61°36' W 071°54'0 0.0 350 / 21017.6 6.0 6.1
2016-Jul-24 22:00N 61°36' W 071°54'0 0.0 010 / 31017.3 7.4 7.5
2016-Jul-24 21:00N 61°36' W 071°54'0 0.0 020 / 61016.9 7.2 7.3
2016-Jul-24 18:00N 61°36' W 071°54'0 0.0 020 / 131015.2 6.3 6.4
2016-Jul-24 17:00N 61°36' W 071°54'0 0.0 140 / 51015.0 12.812.7
2016-Jul-24 16:00N 61°36' W 071°54'0 0.0 010 / 41015.1 7.5 7.6
2016-Jul-24 13:00N 61°36' W 071°54'0 0.0 330 / 21014.5 7.0 7.1
2016-Jul-24 12:00N 61°36' W 071°54'0 0.0 300 / 11014.2 7.0 7.1
2016-Jul-24 11:00N 61°36' W 071°54'0 0.0 080 / 11013.9 8.7 8.8
2016-Jul-24 10:00N 61°36' W 071°54'0 0.0 110 / 11013.6 9.0 9.1
2016-Jul-24 08:00N 61°36' W 071°54'0 0.0 130 / 41013.2 8.7 8.8
2016-Jul-24 05:00N 61°36' W 071°54'0 0.0 130 / 71011.9 7.1 7.2
2016-Jul-24 04:00N 61°36' W 071°54'0 0.0 130 / 71011.4 7.2 7.3
2016-Jul-24 02:00N 61°36' W 071°54'0 0.0 130 / 21010.8 9.2 9.3
2016-Jul-24 00:00N 61°36' W 071°54'0 0.0 120 / 41010.3 9.9 9.9
2016-Jul-23 23:00N 61°36' W 071°54'0 0.0 230 / 11010.4 7.8 7.8
2016-Jul-23 22:00N 61°36' W 071°54'0 0.0 050 / 11010.3 9.0 9.0
2016-Jul-23 20:00N 61°36' W 071°54'0 0.0 130 / 91009.3 9.3 9.3
2016-Jul-23 19:00N 61°36' W 071°54'0 0.0 130 / 71008.6 10.310.3
2016-Jul-23 18:00N 61°36' W 071°54'0 0.0 120 / 71008.1 10.911.0
2016-Jul-23 16:00N 61°36' W 071°54'0 0.0 130 / 71007.1 10.110.2
2016-Jul-23 15:00N 61°36' W 071°54'0 0.0 1006.9 8.2 8.3
2016-Jul-23 09:00N 61°36' W 071°54'0 0.0 100 / 21006.2 7.1 7.2
2016-Jul-23 08:00N 61°36' W 071°54'0 0.0 1005.8 6.5 6.6
2016-Jul-23 07:00N 61°36' W 071°54'0 0.0 040 / 11005.1 6.8 6.9
2016-Jul-23 06:00N 61°36' W 071°54'0 0.0 280 / 11004.7 6.6 6.7
2016-Jul-23 05:00N 61°36' W 071°54'0 0.0 100 / 11004.5 6.7 6.8
2016-Jul-23 04:00N 61°36' W 071°54'0 0.0 240 / 11004.2 5.5 5.6
2016-Jul-23 03:00N 61°36' W 071°54'0 0.0 1004.0 5.4 5.5
2016-Jul-23 02:00N 61°36' W 071°54'0 0.0 210 / 21003.7 4.9 5.0
2016-Jul-23 00:00N 61°36' W 071°54'0 0.0 1003.5 5.9 5.9
2016-Jul-22 22:00N 61°36' W 071°54'0 0.0 310 / 21003.3 5.5 5.6
2016-Jul-22 21:00N 61°36' W 071°54'0 0.0 030 / 121002.7 5.5 5.6
2016-Jul-22 19:00N 61°36' W 071°54'0 0.0 030 / 231000.8 3.7 3.8
2016-Jul-22 16:00N 61°36' W 071°54'0 0.0 020 / 21998.8 4.1 4.2
2016-Jul-22 13:00N 61°36' W 071°54'0 0.0 030 / 20998.5 3.5 3.6
2016-Jul-22 11:00N 61°36' W 071°54'0 0.0 020 / 18998.9 3.7 3.8
2016-Jul-22 10:00N 61°36' W 071°54'0 0.0 030 / 20999.0 3.3 3.4
2016-Jul-22 06:00N 61°36' W 071°54'0 0.0 020 / 21998.6 3.2 3.3
2016-Jul-22 05:00N 61°36' W 071°54'0 0.0 020 / 17998.5 3.8 3.9
2016-Jul-22 04:00N 61°36' W 071°54'0 0.0 010 / 12998.3 3.3 3.4
2016-Jul-22 03:00N 61°36' W 071°54'0 0.0 030 / 8998.2 3.2 3.3
2016-Jul-22 02:00N 61°36' W 071°54'0 0.0 020 / 2998.2 3.9 4.0
2016-Jul-21 22:00N 61°36' W 071°54'0 0.0 280 / 1999.1 5.8 5.9 1.8
2016-Jul-21 21:00N 61°36' W 071°54'0 0.0 230 / 2999.6 4.6 4.7 1.8
2016-Jul-21 20:00N 61°36' W 071°54'17 5.5 999.7 4.3 4.4 2.1
2016-Jul-21 17:00N 61°48' W 071°30'5212.9 120 / 12999.8 3.6 3.7 2.6
2016-Jul-21 13:00N 61°12' W 070°12'19 6.3 140 / 171002.5 4.8 4.8 3.3
2016-Jul-21 10:00N 61°00' W 069°42'0 0.0 300 / 41004.8 5.7 5.7
2016-Jul-21 09:00N 61°00' W 069°42'0 0.0 140 / 151004.6 6.1 6.0
2016-Jul-21 07:00N 61°00' W 069°42'0 0.0 140 / 141005.7 6.3 6.3
2016-Jul-21 06:00N 61°00' W 069°42'0 0.0 170 / 111006.3 5.8 5.7
2016-Jul-21 05:00N 61°00' W 069°42'0 0.0 180 / 131006.2 6.6 5.4
2016-Jul-21 04:00N 61°00' W 069°42'0 0.0 180 / 91006.4 7.0 5.5
2016-Jul-21 03:00N 61°00' W 069°42'0 0.0 170 / 81006.8 7.1 5.5
2016-Jul-21 02:00N 61°00' W 069°42'0 0.0 170 / 121006.9 7.6 5.6
2016-Jul-21 01:00N 61°00' W 069°42'0 0.0 170 / 121007.2 7.4 5.6
2016-Jul-21 00:00N 61°00' W 069°42'0 0.0 170 / 111007.3 7.7 5.9
2016-Jul-20 23:00N 61°00' W 069°42'0 0.0 160 / 181007.1 9.0 6.2
2016-Jul-20 19:00N 61°00' W 069°42'0 0.0 150 / 151007.9 12.3 6.8
2016-Jul-20 18:00N 61°00' W 069°42'0 0.0 140 / 141008.0 13.0 7.2
2016-Jul-20 17:00N 61°00' W 069°42'0 0.0 150 / 141008.1 12.0 7.1
2016-Jul-20 16:00N 61°00' W 069°42'0 0.0 160 / 141008.3 10.9 6.9
2016-Jul-20 15:00N 61°00' W 069°42'0 0.0 150 / 131008.2 10.5 6.9
2016-Jul-20 13:00N 61°00' W 069°42'0 0.0 150 / 111008.7 8.8 6.7
2016-Jul-20 09:00N 61°00' W 069°42'0 0.0 160 / 101009.9 6.0 6.0
2016-Jul-20 05:00N 61°00' W 069°42'0 0.0 170 / 61009.8 8.0 6.7
2016-Jul-20 03:00N 61°00' W 069°42'0 0.0 160 / 51009.7 9.4 7.0
2016-Jul-20 02:00N 61°00' W 069°42'0 0.0 050 / 21009.7 7.6 5.1
2016-Jul-20 01:00N 61°00' W 069°42'0 0.0 1009.5 8.7 5.2
2016-Jul-20 00:00N 61°00' W 069°42'0 0.0 300 / 21009.7 7.3 5.3
2016-Jul-19 22:00N 61°00' W 069°42'0 0.0 020 / 51009.9 7.2 3.8
2016-Jul-19 21:00N 61°00' W 069°42'0 0.0 1010.3 9.2 4.1
2016-Jul-19 19:00N 61°00' W 069°42'0 0.0 360 / 11010.2 8.6 4.5
2016-Jul-19 17:00N 61°00' W 069°42'0 0.0 1009.7 7.4 5.1
2016-Jul-19 16:00N 61°00' W 069°42'0 0.0 060 / 11009.5 6.8 4.9
2016-Jul-19 14:00N 61°00' W 069°42'0 0.0 340 / 61009.2 6.1 5.1
2016-Jul-19 13:00N 61°00' W 069°42'0 0.0 330 / 71008.7 5.0 5.0
2016-Jul-19 11:00N 61°00' W 069°42'0 0.0 330 / 121007.9 3.9 3.9
2016-Jul-19 10:00N 61°00' W 069°42'0 0.0 330 / 101007.7 4.0 4.0
2016-Jul-19 09:00N 61°00' W 069°42'0 0.0 320 / 131007.2 3.3 3.3
2016-Jul-19 08:00N 61°00' W 069°42'0 0.0 330 / 141007.0 3.5 3.5
2016-Jul-19 06:00N 61°00' W 069°42'0 0.0 310 / 161006.2 3.4 3.4
2016-Jul-19 03:00N 61°00' W 069°42'0 0.0 160 / 71004.3 9.5 6.9
2016-Jul-19 02:00N 61°00' W 069°42'0 0.0 160 / 81003.7 9.7 7.0
2016-Jul-19 01:00N 61°00' W 069°42'0 0.0 140 / 81003.0 10.8 6.4
2016-Jul-19 00:00N 61°00' W 069°42'0 0.0 020 / 31002.7 11.0 5.1
2016-Jul-18 21:00N 61°00' W 069°42'0 0.0 330 / 31002.0 10.5 6.5
2016-Jul-18 20:00N 61°00' W 069°42'0 0.0 260 / 11001.4 10.7 6.9
2016-Jul-18 19:00N 61°00' W 069°42'0 0.0 320 / 21001.1 9.5 6.8
2016-Jul-18 18:00N 61°00' W 069°42'0 0.0 320 / 21000.7 10.2 7.5
2016-Jul-18 17:00N 61°00' W 069°42'0 0.0 240 / 1999.7 8.6 7.9
2016-Jul-18 16:00N 61°00' W 069°42'0 0.0 280 / 5998.9 9.1 7.8
2016-Jul-18 11:00N 61°00' W 069°42'0 0.0 170 / 16995.6 10.410.4
2016-Jul-18 09:00N 61°00' W 069°42'0 0.0 170 / 17996.7 9.5 9.5
2016-Jul-18 08:00N 61°00' W 069°42'0 0.0 160 / 21997.2 9.4 9.4
2016-Jul-18 07:00N 61°00' W 069°42'0 0.0 170 / 22998.0 9.8 9.8
2016-Jul-18 04:00N 61°00' W 069°42'0 0.0 190 / 23999.6 14.713.4
2016-Jul-18 03:00N 61°00' W 069°42'0 0.0 160 / 181000.2 14.013.8
2016-Jul-17 23:00N 61°00' W 069°42'0 0.0 220 / 10999.5 13.013.0
2016-Jul-17 22:00N 61°00' W 069°42'0 0.0 230 / 10999.6 13.013.0
2016-Jul-17 19:00N 61°00' W 069°42'0 0.0 190 / 25997.3 12.712.7
2016-Jul-17 18:00N 61°00' W 069°42'0 0.0 160 / 16998.8 10.410.5
2016-Jul-17 15:00N 61°00' W 069°42'0 0.0 170 / 141001.2 7.9 7.9
2016-Jul-17 14:00N 61°00' W 069°42'0 0.0 180 / 101001.1 8.7 8.6
2016-Jul-17 13:00N 61°00' W 069°42'0 0.0 200 / 91001.1 8.4 8.0
2016-Jul-17 12:00N 61°00' W 069°42'0 0.0 250 / 71001.2 7.3 6.6
2016-Jul-17 11:00N 61°00' W 069°42'0 0.0 250 / 91000.6 8.0 6.5 2.1
2016-Jul-17 10:00N 61°00' W 069°42'0 0.0 230 / 151000.1 7.0 6.4 2.4
2016-Jul-17 09:00N 61°00' W 069°42'11 5.3 220 / 9999.7 7.6 7.1 2.7
2016-Jul-17 07:00N 61°06' W 070°00'13 6.7 270 / 10998.3 7.7 7.2 1.9
2016-Jul-17 05:00N 61°18' W 070°12'2110.7 230 / 9995.8 5.6 5.4 3.2
2016-Jul-17 03:00N 61°36' W 070°36'1313.3 230 / 17993.0 5.5 5.4 2.9
2016-Jul-17 02:00N 61°48' W 070°48'7 6.6 250 / 19991.2 5.6 5.6 3.1
2016-Jul-17 01:00N 61°54' W 070°54'1616.5 220 / 14990.1 7.2 7.4 3.3
2016-Jul-17 00:00N 62°06' W 071°18'2311.6 220 / 9989.2 5.2 5.4 2.8
2016-Jul-16 22:00N 62°12' W 072°06'1312.7 240 / 10987.0 7.4 7.5 3.1
2016-Jul-16 21:00N 62°18' W 072°30'3015.1 240 / 9986.2 6.8 6.9 3.4
2016-Jul-16 19:00N 62°30' W 073°30'2813.9 180 / 9984.8 2.9 3.0 2.8
2016-Jul-16 17:00N 62°30' W 074°30'2612.8 100 / 13984.0 2.4 2.5 4.1
2016-Jul-16 15:00N 62°36' W 075°24'1413.8 110 / 12983.5 3.5 3.6 3.5
2016-Jul-16 14:00N 62°36' W 075°54'1111.0 100 / 13983.4 3.5 3.7 5.0
2016-Jul-16 13:00N 62°36' W 076°18'1413.8 110 / 12983.2 3.7 3.8 4.4
2016-Jul-16 12:00N 62°36' W 076°48'1111.0 120 / 15983.0 3.5 3.6 3.7
2016-Jul-16 11:00N 62°36' W 077°12'1515.0 100 / 14983.1 3.6 3.7 4.7
2016-Jul-16 10:00N 62°42' W 077°42'1413.8 100 / 14983.3 3.7 3.8 5.2
2016-Jul-16 09:00N 62°42' W 078°12'6 5.5 100 / 11984.1 2.8 2.9 3.7
2016-Jul-16 08:00N 62°42' W 078°24'1212.3 120 / 14984.4 2.9 3.0 4.8
2016-Jul-16 07:00N 62°30' W 078°30'1212.0 170 / 12985.1 4.3 4.4 4.9
2016-Jul-16 06:00N 62°18' W 078°30'1212.0 150 / 15985.6 3.9 4.0 3.9
2016-Jul-16 05:00N 62°06' W 078°30'1212.0 150 / 11986.5 3.0 3.1 3.5
2016-Jul-16 04:00N 61°54' W 078°30'2412.1 150 / 9987.8 3.3 3.4 4.2
2016-Jul-16 02:00N 61°30' W 078°36'1212.0 190 / 11989.7 5.9 6.0 6.3
2016-Jul-16 01:00N 61°18' W 078°36'2512.3 210 / 12990.8 5.8 5.9 6.0
2016-Jul-15 23:00N 60°54' W 078°48'19 6.2 210 / 12993.3 5.6 5.7 5.2
2016-Jul-15 20:00N 60°48' W 078°12'0 0.0 270 / 9994.6 5.0 5.1
2016-Jul-15 19:00N 60°48' W 078°12'0 0.0 310 / 17994.8 4.5 4.6
2016-Jul-15 17:00N 60°48' W 078°12'0 0.0 300 / 13995.0 5.1 5.2
2016-Jul-15 16:00N 60°48' W 078°12'0 0.0 310 / 12995.0 4.9 4.9
2016-Jul-15 14:00N 60°48' W 078°12'0 0.0 340 / 22994.7 3.9 3.9
2016-Jul-15 13:00N 60°48' W 078°12'0 0.0 340 / 21994.2 3.7 3.8
2016-Jul-15 12:00N 60°48' W 078°12'0 0.0 330 / 20994.1 3.6 3.7
2016-Jul-15 11:00N 60°48' W 078°12'0 0.0 340 / 24993.7 3.5 3.6
2016-Jul-15 10:00N 60°48' W 078°12'0 0.0 340 / 24993.4 3.6 3.6
2016-Jul-15 08:00N 60°48' W 078°12'0 0.0 350 / 23993.3 3.1 3.1
2016-Jul-15 06:00N 60°48' W 078°12'0 0.0 350 / 21993.3 3.1 3.1
2016-Jul-15 05:00N 60°48' W 078°12'   350 / 18993.2 3.3 3.4

Dump ship's entire track history